createdAt,value
2023-07-23T00:01:35.027Z,68.22
2023-07-23T00:04:03.211Z,68.57
2023-07-23T00:06:31.217Z,68.61
2023-07-23T00:08:59.219Z,68.69
2023-07-23T00:11:27.459Z,68.48
2023-07-23T00:13:57.175Z,68.47
2023-07-23T00:16:25.333Z,68.38
2023-07-23T00:18:53.301Z,68.42
2023-07-23T00:21:22.129Z,68.38
2023-07-23T00:23:50.538Z,68.57
2023-07-23T00:26:18.505Z,68.51
2023-07-23T00:28:46.483Z,68.51
2023-07-23T00:31:14.658Z,68.68
2023-07-23T00:33:42.680Z,68.55
2023-07-23T00:36:10.700Z,68.70
2023-07-23T00:38:38.677Z,68.84
2023-07-23T00:41:06.734Z,68.83
2023-07-23T00:43:34.857Z,68.63
2023-07-23T00:46:02.899Z,68.84
2023-07-23T00:48:30.918Z,68.94
2023-07-23T00:50:59.138Z,69.09
2023-07-23T00:53:28.209Z,68.86
2023-07-23T00:55:56.941Z,68.62
2023-07-23T00:58:25.356Z,68.72
2023-07-23T01:00:53.559Z,68.51
2023-07-23T01:03:22.137Z,68.45
2023-07-23T01:05:51.938Z,68.49
2023-07-23T01:08:21.941Z,68.31
2023-07-23T01:10:50.025Z,68.65
2023-07-23T01:13:18.466Z,68.71
2023-07-23T01:15:47.179Z,68.88
2023-07-23T01:18:18.439Z,68.52
2023-07-23T01:20:46.592Z,68.31
2023-07-23T01:23:14.542Z,68.09
2023-07-23T01:25:42.567Z,68.32
2023-07-23T01:28:10.775Z,68.51
2023-07-23T01:30:38.674Z,68.41
2023-07-23T01:33:07.082Z,68.60
2023-07-23T01:35:35.321Z,68.49
2023-07-23T01:51:04.516Z,68.63
2023-07-23T01:53:32.774Z,68.80
2023-07-23T01:56:00.830Z,68.76
2023-07-23T01:58:28.887Z,68.74
2023-07-23T02:01:01.918Z,68.65
2023-07-23T02:03:32.359Z,69.01
2023-07-23T02:06:02.004Z,68.84
2023-07-23T02:08:30.314Z,68.71
2023-07-23T02:11:02.134Z,68.93
2023-07-23T02:13:30.908Z,68.66
2023-07-23T02:15:59.012Z,68.70
2023-07-23T02:18:27.318Z,68.45
2023-07-23T02:20:55.283Z,68.23
2023-07-23T02:23:23.441Z,68.81
2023-07-23T02:25:51.744Z,68.65
2023-07-23T02:28:19.739Z,69.00
2023-07-23T02:30:55.776Z,68.96
2023-07-23T02:33:23.915Z,68.84
2023-07-23T02:35:51.932Z,69.23
2023-07-23T02:38:19.999Z,69.23
2023-07-23T02:40:47.971Z,69.36
2023-07-23T02:43:15.936Z,69.45
2023-07-23T02:45:44.153Z,69.28
2023-07-23T02:48:12.272Z,69.72
2023-07-23T02:50:41.277Z,69.22
2023-07-23T02:53:09.448Z,69.38
2023-07-23T02:55:37.578Z,69.08
2023-07-23T02:58:05.644Z,69.16
2023-07-23T03:00:34.353Z,69.34
2023-07-23T03:03:03.115Z,69.53
2023-07-23T03:05:31.327Z,69.15
2023-07-23T03:07:59.352Z,69.51
2023-07-23T03:10:27.352Z,69.28
2023-07-23T03:12:55.297Z,69.67
2023-07-23T03:15:24.730Z,69.41
2023-07-23T03:17:52.817Z,69.60
2023-07-23T03:20:22.003Z,69.67
2023-07-23T03:22:49.965Z,70.31
2023-07-23T03:25:18.093Z,70.06
2023-07-23T03:27:46.046Z,70.02
2023-07-23T03:30:14.545Z,70.38
2023-07-23T03:32:42.799Z,70.00
2023-07-23T03:35:11.009Z,70.32
2023-07-23T03:37:38.964Z,70.54
2023-07-23T03:40:07.807Z,70.67
2023-07-23T03:42:35.766Z,70.83
2023-07-23T03:45:05.425Z,70.67
2023-07-23T03:47:35.513Z,71.03
2023-07-23T03:50:03.667Z,71.22
2023-07-23T03:52:31.656Z,71.30
2023-07-23T03:54:59.628Z,71.28
2023-07-23T03:57:27.654Z,71.17
2023-07-23T03:59:55.688Z,71.25
2023-07-23T04:02:23.729Z,71.30
2023-07-23T04:04:51.782Z,71.21
2023-07-23T04:07:19.725Z,71.34
2023-07-23T04:09:48.052Z,71.77
2023-07-23T04:12:16.184Z,71.62
2023-07-23T04:14:45.076Z,71.62
2023-07-23T04:17:17.024Z,71.70
2023-07-23T04:19:46.104Z,71.83
2023-07-23T04:22:14.095Z,71.97
2023-07-23T04:24:42.206Z,72.05
2023-07-23T04:27:10.145Z,72.03
2023-07-23T04:29:38.657Z,72.12
2023-07-23T04:32:06.772Z,72.22
2023-07-23T04:34:34.860Z,72.60
2023-07-23T04:37:02.980Z,72.36
2023-07-23T04:39:30.959Z,72.52
2023-07-23T04:41:59.003Z,72.85
2023-07-23T04:44:26.920Z,73.12
2023-07-23T04:46:54.946Z,73.12
2023-07-23T04:49:23.069Z,73.31
2023-07-23T04:51:51.071Z,73.26
2023-07-23T04:54:19.032Z,73.50
2023-07-23T04:56:46.958Z,73.51
2023-07-23T04:59:14.923Z,73.51
2023-07-23T05:01:42.892Z,73.55
2023-07-23T05:04:11.491Z,73.66
2023-07-23T05:06:39.462Z,73.80
2023-07-23T05:09:07.914Z,73.63
2023-07-23T05:11:35.986Z,73.55
2023-07-23T05:14:03.923Z,73.32
2023-07-23T05:16:31.945Z,73.35
2023-07-23T05:18:59.913Z,73.10
2023-07-23T05:21:28.523Z,72.89
2023-07-23T05:23:56.753Z,72.53
2023-07-23T05:26:24.808Z,71.02
2023-07-23T05:28:52.922Z,71.37
2023-07-23T05:31:20.996Z,71.76
2023-07-23T05:33:48.944Z,71.46
2023-07-23T05:36:16.907Z,71.06
2023-07-23T05:38:44.968Z,70.51
2023-07-23T05:41:12.968Z,70.09
2023-07-23T05:43:40.954Z,70.10
2023-07-23T05:46:09.655Z,69.94
2023-07-23T05:48:37.611Z,69.78
2023-07-23T05:51:05.590Z,69.73
2023-07-23T05:53:33.524Z,69.16
2023-07-23T05:56:01.804Z,68.90
2023-07-23T05:58:29.942Z,67.31
2023-07-23T06:00:58.545Z,67.79
2023-07-23T06:03:31.046Z,67.90
2023-07-23T06:06:05.003Z,66.82
2023-07-23T06:08:33.088Z,67.16
2023-07-23T06:11:01.037Z,67.60
2023-07-23T06:13:29.033Z,67.64
2023-07-23T06:15:57.033Z,67.50
2023-07-23T06:18:25.015Z,67.37
2023-07-23T06:20:52.952Z,67.28
2023-07-23T06:23:21.121Z,67.41
2023-07-23T06:25:55.989Z,67.41
2023-07-23T06:28:24.485Z,67.40
2023-07-23T06:30:56.395Z,66.95
2023-07-23T06:33:24.441Z,66.74
2023-07-23T06:35:52.507Z,66.25
2023-07-23T06:38:20.718Z,66.41
2023-07-23T06:40:50.332Z,66.34
2023-07-23T06:43:20.510Z,66.20
2023-07-23T06:45:49.806Z,65.88
2023-07-23T06:48:20.506Z,65.76
2023-07-23T06:50:48.752Z,65.64
2023-07-23T06:53:17.125Z,63.71
2023-07-23T06:56:03.142Z,65.05
2023-07-23T06:58:34.527Z,64.94
2023-07-23T07:01:03.254Z,64.32
2023-07-23T07:03:31.434Z,63.99
2023-07-23T07:06:00.982Z,64.26
2023-07-23T07:08:29.974Z,64.41
2023-07-23T07:11:03.258Z,64.26
2023-07-23T07:13:32.615Z,64.33
2023-07-23T07:16:00.770Z,64.46
2023-07-23T07:18:29.902Z,64.61
2023-07-23T07:20:59.796Z,64.66
2023-07-23T07:23:29.033Z,64.57
2023-07-23T07:25:58.472Z,64.61
2023-07-23T07:28:26.773Z,64.78
2023-07-23T07:30:59.732Z,64.61
2023-07-23T07:33:29.167Z,64.57
2023-07-23T07:35:59.295Z,63.77
2023-07-23T07:38:28.422Z,64.12
2023-07-23T07:40:59.395Z,63.90
2023-07-23T07:43:28.004Z,63.68
2023-07-23T07:46:01.293Z,63.77
2023-07-23T07:48:31.807Z,63.73
2023-07-23T07:51:04.646Z,63.80
2023-07-23T07:53:33.999Z,62.68
2023-07-23T07:56:02.564Z,62.67
2023-07-23T07:58:31.596Z,61.86
2023-07-23T08:01:01.694Z,61.27
2023-07-23T08:03:31.616Z,61.50
2023-07-23T08:06:01.300Z,59.57
2023-07-23T08:08:31.514Z,59.10
2023-07-23T08:11:02.179Z,57.94
2023-07-23T08:13:30.719Z,58.85
2023-07-23T08:15:58.961Z,58.53
2023-07-23T08:18:27.256Z,57.30
2023-07-23T08:20:58.547Z,57.90
2023-07-23T08:23:29.653Z,57.53
2023-07-23T08:26:00.488Z,57.94
2023-07-23T08:28:30.756Z,57.32
2023-07-23T08:31:01.576Z,57.59
2023-07-23T08:33:32.574Z,56.83
2023-07-23T08:36:02.186Z,57.41
2023-07-23T08:38:30.560Z,57.26
2023-07-23T08:41:02.369Z,57.10
2023-07-23T08:43:58.706Z,57.19
2023-07-23T08:46:28.276Z,56.85
2023-07-23T08:49:05.647Z,56.64
2023-07-23T08:51:44.481Z,57.23
2023-07-23T08:54:14.929Z,57.49
2023-07-23T08:56:45.403Z,57.27
2023-07-23T08:59:14.386Z,57.20
2023-07-23T09:01:43.574Z,57.48
2023-07-23T09:04:13.887Z,56.90
2023-07-23T09:06:45.248Z,56.55
2023-07-23T09:09:15.079Z,56.36
2023-07-23T09:11:43.842Z,56.10
2023-07-23T09:14:14.759Z,55.85
2023-07-23T09:16:45.360Z,56.40
2023-07-23T09:19:28.544Z,54.69
2023-07-23T09:21:59.042Z,53.93
2023-07-23T09:24:34.771Z,54.14
2023-07-23T09:27:04.167Z,54.97
2023-07-23T09:29:37.272Z,54.57
2023-07-23T09:32:16.940Z,54.12
2023-07-23T09:34:50.693Z,51.96
2023-07-23T09:37:19.142Z,52.15
2023-07-23T09:39:47.371Z,52.78
2023-07-23T09:42:22.116Z,52.59
2023-07-23T09:44:50.753Z,53.31
2023-07-23T09:47:26.020Z,52.53
2023-07-23T09:49:54.177Z,52.11
2023-07-23T09:52:35.927Z,51.80
2023-07-23T09:55:04.525Z,52.20
2023-07-23T09:57:35.321Z,52.14
2023-07-23T10:00:04.742Z,51.06
2023-07-23T10:02:42.694Z,50.81
2023-07-23T10:05:17.004Z,51.39
2023-07-23T10:07:48.409Z,50.97
2023-07-23T10:10:17.483Z,50.95
2023-07-23T10:12:45.699Z,49.73
2023-07-23T10:15:13.973Z,49.09
2023-07-23T10:17:47.677Z,48.92
2023-07-23T10:20:18.187Z,49.19
2023-07-23T10:22:46.930Z,48.80
2023-07-23T10:25:35.769Z,49.22
2023-07-23T10:28:09.561Z,49.45
2023-07-23T10:30:38.666Z,48.54
2023-07-23T10:33:10.327Z,48.79
2023-07-23T10:35:53.980Z,48.77
2023-07-23T10:38:23.088Z,48.53
2023-07-23T10:40:51.548Z,48.18
2023-07-23T10:43:19.599Z,48.15
2023-07-23T10:46:05.202Z,48.34
2023-07-23T10:48:51.204Z,48.31
2023-07-23T10:51:26.869Z,48.09
2023-07-23T10:54:06.305Z,48.67
2023-07-23T10:56:36.440Z,48.44
2023-07-23T10:59:04.575Z,48.43
2023-07-23T11:01:39.746Z,48.82
2023-07-23T11:04:14.045Z,48.94
2023-07-23T11:07:00.038Z,48.65
2023-07-23T11:09:33.755Z,48.26
2023-07-23T11:12:06.588Z,47.78
2023-07-23T11:14:51.455Z,46.86
2023-07-23T11:17:24.941Z,47.52
2023-07-23T11:19:56.223Z,47.76
2023-07-23T11:22:24.245Z,47.94
2023-07-23T11:24:52.408Z,48.36
2023-07-23T11:27:21.789Z,48.26
2023-07-23T11:29:49.940Z,48.53
2023-07-23T11:32:18.136Z,48.38
2023-07-23T11:34:46.209Z,47.69
2023-07-23T11:37:16.148Z,47.16
2023-07-23T11:39:53.130Z,47.08
2023-07-23T11:42:22.008Z,47.41
2023-07-23T11:45:07.856Z,47.48
2023-07-23T11:47:46.913Z,47.38
2023-07-23T11:50:19.137Z,47.68
2023-07-23T11:52:48.919Z,47.42
2023-07-23T11:55:24.271Z,47.87
2023-07-23T11:57:58.878Z,48.04
2023-07-23T12:00:59.318Z,47.94
2023-07-23T12:03:45.673Z,47.39
2023-07-23T12:06:15.761Z,46.85
2023-07-23T12:08:47.471Z,47.12
2023-07-23T12:11:16.779Z,47.44
2023-07-23T12:13:53.756Z,47.54
2023-07-23T12:16:48.414Z,47.97
2023-07-23T12:19:21.307Z,47.42
2023-07-23T12:21:58.986Z,47.35
2023-07-23T12:24:33.944Z,47.04
2023-07-23T12:27:05.628Z,46.90
2023-07-23T12:29:43.933Z,47.13
2023-07-23T12:32:13.728Z,47.01
2023-07-23T12:34:45.139Z,46.82
2023-07-23T12:37:16.070Z,46.81
2023-07-23T12:39:47.570Z,45.29
2023-07-23T12:42:15.701Z,45.67
2023-07-23T12:44:43.836Z,45.16
2023-07-23T12:47:12.763Z,43.61
2023-07-23T12:49:41.189Z,44.11
2023-07-23T12:52:09.271Z,44.50
2023-07-23T12:54:37.274Z,43.77
2023-07-23T12:57:10.302Z,43.83
2023-07-23T12:59:38.820Z,43.34
2023-07-23T13:02:09.699Z,43.79
2023-07-23T13:04:38.931Z,43.77
2023-07-23T13:07:07.147Z,43.33
2023-07-23T13:09:35.160Z,43.37
2023-07-23T13:12:03.856Z,43.19
2023-07-23T13:14:31.915Z,43.78
2023-07-23T13:17:00.390Z,44.05
2023-07-23T13:19:28.465Z,43.85
2023-07-23T13:21:56.641Z,43.50
2023-07-23T13:24:24.678Z,43.87
2023-07-23T13:26:52.665Z,43.30
2023-07-23T13:29:20.690Z,42.84
2023-07-23T13:31:48.808Z,43.06
2023-07-23T13:34:16.804Z,43.27
2023-07-23T13:36:45.022Z,43.23
2023-07-23T13:39:13.181Z,42.73
2023-07-23T13:41:41.209Z,42.67
2023-07-23T13:44:09.232Z,42.57
2023-07-23T13:46:37.268Z,42.63
2023-07-23T13:49:05.415Z,42.80
2023-07-23T13:51:33.420Z,42.51
2023-07-23T13:54:01.468Z,42.63
2023-07-23T13:56:29.737Z,42.33
2023-07-23T13:58:58.017Z,42.44
2023-07-23T14:01:26.553Z,41.99
2023-07-23T14:03:54.771Z,41.74
2023-07-23T14:06:23.420Z,42.00
2023-07-23T14:08:51.477Z,42.16
2023-07-23T14:11:19.515Z,41.93
2023-07-23T14:13:47.516Z,41.92
2023-07-23T14:16:15.591Z,42.10
2023-07-23T14:18:43.623Z,41.96
2023-07-23T14:21:24.546Z,41.70
2023-07-23T14:23:58.334Z,41.24
2023-07-23T14:26:30.390Z,41.13
2023-07-23T14:29:03.237Z,41.29
2023-07-23T14:35:05.461Z,41.54
2023-07-23T14:38:03.582Z,42.03
2023-07-23T14:40:57.988Z,42.01
2023-07-23T14:43:37.639Z,42.11
2023-07-23T14:46:05.836Z,42.63
2023-07-23T14:48:33.813Z,42.85
2023-07-23T14:51:01.927Z,43.04
2023-07-23T14:53:29.994Z,43.36
2023-07-23T14:55:58.120Z,43.84
2023-07-23T14:58:27.242Z,43.74
2023-07-23T15:00:55.922Z,43.64
2023-07-23T15:03:24.243Z,43.27
2023-07-23T15:05:52.530Z,42.94
2023-07-23T15:08:20.560Z,42.73
2023-07-23T15:10:48.712Z,42.64
2023-07-23T15:13:16.927Z,42.91
2023-07-23T15:15:45.553Z,41.99
2023-07-23T15:18:14.045Z,42.32
2023-07-23T15:20:43.081Z,42.00
2023-07-23T15:23:19.159Z,42.32
2023-07-23T15:25:47.516Z,42.81
2023-07-23T15:28:18.647Z,42.81
2023-07-23T15:30:46.673Z,43.19
2023-07-23T15:33:14.963Z,43.42
2023-07-23T15:35:42.972Z,42.84
2023-07-23T15:38:11.229Z,43.17
2023-07-23T15:40:39.182Z,42.81
2023-07-23T15:43:07.221Z,43.20
2023-07-23T15:45:35.298Z,42.42
2023-07-23T15:48:03.983Z,41.81
2023-07-23T15:50:32.286Z,42.31
2023-07-23T15:53:00.676Z,42.64
2023-07-23T15:55:28.750Z,42.27
2023-07-23T15:57:56.690Z,41.85
2023-07-23T16:00:24.690Z,42.30
2023-07-23T16:02:52.796Z,42.29
2023-07-23T16:05:21.010Z,42.54
2023-07-23T16:07:49.596Z,42.68
2023-07-23T16:10:17.661Z,42.81
2023-07-23T16:12:45.768Z,43.00
2023-07-23T16:15:13.911Z,43.18
2023-07-23T16:17:42.189Z,43.25
2023-07-23T16:20:10.384Z,43.45
2023-07-23T16:22:38.577Z,43.64
2023-07-23T16:25:06.762Z,43.66
2023-07-23T16:27:35.140Z,43.97
2023-07-23T16:30:03.390Z,43.96
2023-07-23T16:32:31.836Z,43.99
2023-07-23T16:35:00.533Z,44.33
2023-07-23T16:37:31.321Z,44.41
2023-07-23T16:40:00.102Z,44.73
2023-07-23T16:42:30.737Z,44.80
2023-07-23T16:45:02.824Z,45.04
2023-07-23T16:47:30.831Z,44.88
2023-07-23T16:49:58.841Z,45.16
2023-07-23T16:52:27.451Z,45.19
2023-07-23T16:54:55.876Z,45.38
2023-07-23T16:57:24.698Z,45.41
2023-07-23T16:59:52.741Z,45.44
2023-07-23T17:02:20.862Z,45.67
2023-07-23T17:04:48.902Z,45.68
2023-07-23T17:07:17.139Z,45.74
2023-07-23T17:09:45.206Z,46.03
2023-07-23T17:12:13.408Z,46.15
2023-07-23T17:14:41.426Z,46.12
2023-07-23T17:17:09.897Z,46.19
2023-07-23T17:19:38.208Z,46.22
2023-07-23T17:22:07.219Z,46.13
2023-07-23T17:24:35.516Z,46.26
2023-07-23T17:27:03.833Z,46.35
2023-07-23T17:29:34.077Z,46.35
2023-07-23T17:32:02.124Z,45.95
2023-07-23T17:34:30.128Z,46.14
2023-07-23T17:36:58.341Z,46.15
2023-07-23T17:39:28.364Z,46.21
2023-07-23T17:41:56.716Z,46.36
2023-07-23T17:44:24.763Z,46.33
2023-07-23T17:46:52.794Z,46.61
2023-07-23T17:49:20.927Z,46.63
2023-07-23T17:51:49.099Z,46.70
2023-07-23T17:54:17.117Z,46.88
2023-07-23T17:56:45.198Z,46.97
2023-07-23T17:59:14.658Z,47.13
2023-07-23T18:01:47.541Z,47.31
2023-07-23T18:04:19.360Z,47.51
2023-07-23T18:06:47.904Z,47.81
2023-07-23T18:09:17.896Z,47.72
2023-07-23T18:11:46.190Z,47.99
2023-07-23T18:14:14.326Z,48.27
2023-07-23T18:16:44.489Z,48.41
2023-07-23T18:19:13.222Z,48.39
2023-07-23T18:21:41.824Z,48.50
2023-07-23T18:24:11.064Z,48.50
2023-07-23T18:26:39.905Z,48.60
2023-07-23T18:29:12.182Z,48.89
2023-07-23T18:31:41.054Z,48.86
2023-07-23T18:34:09.736Z,48.95
2023-07-23T18:36:40.826Z,48.81
2023-07-23T18:39:09.558Z,48.64
2023-07-23T18:41:38.223Z,48.63
2023-07-23T18:44:07.985Z,48.41
2023-07-23T18:46:36.811Z,48.28
2023-07-23T18:49:05.712Z,48.32
2023-07-23T18:51:34.774Z,48.28
2023-07-23T18:54:04.281Z,48.32
2023-07-23T18:56:33.356Z,48.26
2023-07-23T18:59:02.197Z,48.23
2023-07-23T19:01:31.351Z,48.32
2023-07-23T19:07:06.738Z,48.47
2023-07-23T19:09:36.356Z,48.35
2023-07-23T19:12:05.557Z,48.47
2023-07-23T19:14:34.581Z,48.52
2023-07-23T19:17:03.512Z,48.39
2023-07-23T19:19:33.414Z,48.44
2023-07-23T19:22:04.004Z,48.39
2023-07-23T19:24:32.401Z,48.30
2023-07-23T19:27:00.836Z,48.38
2023-07-23T19:29:31.976Z,48.45
2023-07-23T19:32:01.033Z,48.43
2023-07-23T19:34:30.258Z,48.42
2023-07-23T19:36:59.388Z,48.54
2023-07-23T19:39:28.698Z,48.65
2023-07-23T19:42:00.657Z,48.72
2023-07-23T19:44:31.292Z,48.80
2023-07-23T19:46:59.983Z,48.91
2023-07-23T19:49:32.728Z,48.80
2023-07-23T19:52:05.016Z,48.97
2023-07-23T19:54:34.217Z,49.07
2023-07-23T19:57:02.908Z,49.06
2023-07-23T19:59:31.843Z,49.05
2023-07-23T20:02:00.139Z,49.14
2023-07-23T20:04:29.014Z,49.09
2023-07-23T20:06:57.243Z,49.11
2023-07-23T20:09:25.604Z,49.06
2023-07-23T20:11:57.266Z,49.05
2023-07-23T20:14:26.483Z,49.29
2023-07-23T20:16:55.065Z,49.19
2023-07-23T20:19:23.276Z,49.10
2023-07-23T20:21:52.857Z,49.15
2023-07-23T20:24:21.847Z,49.21
2023-07-23T20:26:50.422Z,49.19
2023-07-23T20:29:19.944Z,49.24
2023-07-23T20:35:17.436Z,49.18
2023-07-23T20:37:45.815Z,49.21
2023-07-23T20:40:14.740Z,49.28
2023-07-23T20:42:43.078Z,49.28
2023-07-23T20:45:11.267Z,49.28
2023-07-23T20:47:39.422Z,49.32
2023-07-23T20:50:08.431Z,49.27
2023-07-23T20:52:36.396Z,49.11
2023-07-23T20:55:04.732Z,49.29
2023-07-23T20:57:32.843Z,49.29
2023-07-23T21:00:01.421Z,49.24
2023-07-23T21:02:29.514Z,49.27
2023-07-23T21:04:57.542Z,49.39
2023-07-23T21:07:25.656Z,49.50
2023-07-23T21:09:53.667Z,49.50
2023-07-23T21:12:21.692Z,49.43
2023-07-23T21:14:50.288Z,49.51
2023-07-23T21:17:19.485Z,49.63
2023-07-23T21:20:00.666Z,49.54
2023-07-23T21:22:30.759Z,49.69
2023-07-23T21:24:59.641Z,49.66
2023-07-23T21:27:27.635Z,49.71
2023-07-23T21:29:55.568Z,49.81
2023-07-23T21:32:23.526Z,49.80
2023-07-23T21:34:51.463Z,49.95
2023-07-23T21:37:19.479Z,50.12
2023-07-23T21:39:47.540Z,50.34
2023-07-23T21:42:24.013Z,50.43
2023-07-23T21:44:52.024Z,50.50
2023-07-23T21:47:20.064Z,50.70
2023-07-23T21:49:48.042Z,50.78
2023-07-23T21:52:19.031Z,50.89
2023-07-23T21:54:47.150Z,50.95
2023-07-23T21:57:16.210Z,51.14
2023-07-23T21:59:48.895Z,51.23
2023-07-23T22:02:16.942Z,51.32
2023-07-23T22:04:45.194Z,51.37
2023-07-23T22:07:13.434Z,51.54
2023-07-23T22:09:41.428Z,51.61
2023-07-23T22:12:13.284Z,51.79
2023-07-23T22:14:42.223Z,51.84
2023-07-23T22:17:10.226Z,51.97
2023-07-23T22:19:38.187Z,52.06
2023-07-23T22:22:06.194Z,52.00
2023-07-23T22:24:34.605Z,51.98
2023-07-23T22:27:02.706Z,52.01
2023-07-23T22:29:30.742Z,52.06
2023-07-23T22:31:58.817Z,52.05
2023-07-23T22:34:26.781Z,51.96
2023-07-23T22:36:54.739Z,51.99
2023-07-23T22:39:22.777Z,52.01
2023-07-23T22:41:50.884Z,51.95
2023-07-23T22:44:19.125Z,51.91
2023-07-23T22:46:47.231Z,52.07
2023-07-23T22:49:15.296Z,52.04
2023-07-23T22:51:43.361Z,52.02
2023-07-23T22:54:11.604Z,51.95
2023-07-23T22:56:39.756Z,52.10
2023-07-23T22:59:07.729Z,52.06
2023-07-23T23:01:36.124Z,52.04
2023-07-23T23:04:04.256Z,52.14
2023-07-23T23:06:34.340Z,52.10
2023-07-23T23:09:02.530Z,52.22
2023-07-23T23:11:30.554Z,52.13
2023-07-23T23:13:58.588Z,52.18
2023-07-23T23:16:26.561Z,52.23
2023-07-23T23:18:55.278Z,52.23
2023-07-23T23:21:23.282Z,52.27
2023-07-23T23:23:51.446Z,52.32
2023-07-23T23:26:19.367Z,52.39
2023-07-23T23:28:47.572Z,52.29
2023-07-23T23:31:15.768Z,52.36
2023-07-23T23:33:43.822Z,52.50
2023-07-23T23:36:11.757Z,52.53
2023-07-23T23:38:39.721Z,52.52
2023-07-23T23:41:07.659Z,52.59
2023-07-23T23:43:35.712Z,52.70
2023-07-23T23:46:03.710Z,52.77
2023-07-23T23:48:31.705Z,52.80
2023-07-23T23:51:00.827Z,52.91
2023-07-23T23:53:29.335Z,52.96
2023-07-23T23:55:57.515Z,53.02
2023-07-23T23:58:25.470Z,53.08
